Time;durP1;ratioP1;P1;durP2;ratioP2;P2;SDS_P1;SDS_P2;PMS_P1;PMS_P2;Temp;Humidity;BMP_temperature;BMP_pressure;BME280_temperature;BME280_humidity;BME280_pressure;Samples;Min_cycle;Max_cycle;Signal;HPM_P1;HPM_P2
2023/10/23 00:01:01;;;;;;;;;;;17.80;67.70;;;;;;7392795;19;4905;-52
2023/10/23 00:03:26;;;;;;;;;;;17.80;67.90;;;;;;7395879;19;5503;-52
2023/10/23 00:05:52;;;;;;;;;;;17.70;67.70;;;;;;7392298;19;4965;-53
2023/10/23 00:08:17;;;;;;;;;;;17.70;67.50;;;;;;7391909;19;4815;-52
2023/10/23 00:10:44;;;;;;;;;;;17.70;67.40;;;;;;7393738;19;4735;-53
2023/10/23 00:13:10;;;;;;;;;;;17.70;67.40;;;;;;7394298;19;4374;-52
2023/10/23 00:15:36;;;;;;;;;;;17.70;67.30;;;;;;7388959;19;4763;-52
2023/10/23 00:18:01;;;;;;;;;;;17.70;67.40;;;;;;7390882;19;4846;-53
2023/10/23 00:20:26;;;;;;;;;;;17.60;67.00;;;;;;7394492;19;4899;-53
2023/10/23 00:22:52;;;;;;;;;;;17.60;67.40;;;;;;7392207;19;6190;-52
2023/10/23 00:25:17;;;;;;;;;;;17.50;67.40;;;;;;7395673;19;4215;-52
2023/10/23 00:27:43;;;;;;;;;;;17.50;67.60;;;;;;7400265;19;2391;-51
2023/10/23 00:30:08;;;;;;;;;;;17.50;67.60;;;;;;7394262;19;5196;-53
2023/10/23 00:32:34;;;;;;;;;;;17.50;67.50;;;;;;7394170;19;4876;-53
2023/10/23 00:34:59;;;;;;;;;;;17.50;67.60;;;;;;7392690;19;3751;-53
2023/10/23 00:37:25;;;;;;;;;;;17.50;67.60;;;;;;7385684;19;4026;-53
2023/10/23 00:39:50;;;;;;;;;;;17.50;67.50;;;;;;7395046;19;5064;-53
2023/10/23 00:42:15;;;;;;;;;;;17.50;67.50;;;;;;7394581;19;4718;-53
2023/10/23 00:44:41;;;;;;;;;;;17.50;67.30;;;;;;7392702;19;5023;-53
2023/10/23 00:47:06;;;;;;;;;;;17.50;67.60;;;;;;7385836;19;4888;-53
2023/10/23 00:49:32;;;;;;;;;;;17.40;67.50;;;;;;7393563;19;5138;-52
2023/10/23 00:51:58;;;;;;;;;;;17.50;67.50;;;;;;7388503;19;4760;-53
2023/10/23 00:54:23;;;;;;;;;;;17.50;67.30;;;;;;7391664;19;3721;-51
2023/10/23 00:56:48;;;;;;;;;;;17.50;67.80;;;;;;7395579;19;1858;-51
2023/10/23 00:59:14;;;;;;;;;;;17.50;67.80;;;;;;7391004;19;4929;-53
2023/10/23 01:01:39;;;;;;;;;;;17.40;67.70;;;;;;7389169;19;4608;-52
2023/10/23 01:04:05;;;;;;;;;;;17.40;67.60;;;;;;7392004;19;4714;-53
2023/10/23 01:06:30;;;;;;;;;;;17.50;67.80;;;;;;7393729;19;3633;-51
2023/10/23 01:08:56;;;;;;;;;;;17.50;67.80;;;;;;7396892;19;1732;-51
2023/10/23 01:11:22;;;;;;;;;;;17.50;68.40;;;;;;7393809;19;4832;-52
2023/10/23 01:13:47;;;;;;;;;;;17.40;67.60;;;;;;7392939;19;4946;-52
2023/10/23 01:16:12;;;;;;;;;;;17.40;67.30;;;;;;7384837;19;4826;-52
2023/10/23 01:18:38;;;;;;;;;;;17.40;67.50;;;;;;7393323;19;4818;-52
2023/10/23 01:21:03;;;;;;;;;;;17.50;67.50;;;;;;7392856;19;4789;-48
2023/10/23 01:23:31;;;;;;;;;;;17.50;67.40;;;;;;7390928;19;4885;-53
2023/10/23 01:25:57;;;;;;;;;;;17.50;67.30;;;;;;7391078;19;4886;-53
2023/10/23 01:28:22;;;;;;;;;;;17.50;67.10;;;;;;7391922;19;4830;-53
2023/10/23 01:30:47;;;;;;;;;;;17.60;67.20;;;;;;7392047;19;5014;-52
2023/10/23 01:33:13;;;;;;;;;;;17.60;67.00;;;;;;7389371;19;3923;-52
2023/10/23 01:35:38;;;;;;;;;;;17.70;66.90;;;;;;7389379;19;4805;-52
2023/10/23 01:38:04;;;;;;;;;;;17.80;66.90;;;;;;7387684;19;3956;-52
2023/10/23 01:40:29;;;;;;;;;;;17.80;66.70;;;;;;7388991;19;4808;-52
2023/10/23 01:42:55;;;;;;;;;;;17.90;66.90;;;;;;7390534;19;4796;-53
2023/10/23 01:45:20;;;;;;;;;;;17.90;66.90;;;;;;7388063;19;4977;-52
2023/10/23 01:47:46;;;;;;;;;;;18.00;66.80;;;;;;7389931;19;4774;-52
2023/10/23 01:50:11;;;;;;;;;;;18.00;66.70;;;;;;7388709;19;5098;-52
2023/10/23 01:52:37;;;;;;;;;;;18.00;66.50;;;;;;7391689;19;3677;-53
2023/10/23 01:55:03;;;;;;;;;;;18.00;66.50;;;;;;7391992;19;5069;-51
2023/10/23 01:57:28;;;;;;;;;;;18.00;66.40;;;;;;7388366;19;3675;-52
2023/10/23 01:59:54;;;;;;;;;;;18.00;66.30;;;;;;7388982;19;5022;-52
2023/10/23 02:02:20;;;;;;;;;;;18.00;66.10;;;;;;7390838;19;4063;-53
2023/10/23 02:04:45;;;;;;;;;;;18.00;65.70;;;;;;7390899;19;4726;-53
2023/10/23 02:07:11;;;;;;;;;;;18.00;65.40;;;;;;7386261;19;5072;-53
2023/10/23 02:09:36;;;;;;;;;;;18.00;65.20;;;;;;7390510;19;4836;-52
2023/10/23 02:12:02;;;;;;;;;;;18.00;65.10;;;;;;7389651;19;4861;-54
2023/10/23 02:14:27;;;;;;;;;;;18.10;65.20;;;;;;7389274;19;4731;-53
2023/10/23 02:16:52;;;;;;;;;;;18.00;65.70;;;;;;7387671;19;4976;-52
2023/10/23 02:19:18;;;;;;;;;;;18.00;65.50;;;;;;7388090;19;4960;-53
2023/10/23 02:21:49;;;;;;;;;;;18.00;65.50;;;;;;7389167;19;4915;-53
2023/10/23 02:24:19;;;;;;;;;;;18.00;65.10;;;;;;7385328;19;4887;-52
2023/10/23 02:26:45;;;;;;;;;;;18.00;64.90;;;;;;7386446;19;5874;-53
2023/10/23 02:29:10;;;;;;;;;;;18.00;65.00;;;;;;7387269;19;4980;-53
2023/10/23 02:31:36;;;;;;;;;;;18.00;64.60;;;;;;7388706;19;3777;-53
2023/10/23 02:34:02;;;;;;;;;;;18.00;64.90;;;;;;7392595;19;4937;-53
2023/10/23 02:36:28;;;;;;;;;;;18.00;65.00;;;;;;7393314;19;4734;-52
2023/10/23 02:38:53;;;;;;;;;;;18.00;65.10;;;;;;7397994;19;4918;-52
2023/10/23 02:41:19;;;;;;;;;;;18.00;65.30;;;;;;7394912;19;6536;-53
2023/10/23 02:43:45;;;;;;;;;;;18.00;65.50;;;;;;7397419;19;3599;-53
2023/10/23 02:46:11;;;;;;;;;;;18.00;65.40;;;;;;7392249;19;5319;-53
2023/10/23 02:48:36;;;;;;;;;;;18.00;65.40;;;;;;7394788;19;4970;-54
2023/10/23 02:51:02;;;;;;;;;;;18.10;65.40;;;;;;7394230;19;5037;-52
2023/10/23 02:53:28;;;;;;;;;;;18.10;65.30;;;;;;7396354;19;5057;-52
2023/10/23 02:55:54;;;;;;;;;;;18.10;65.30;;;;;;7390068;19;5782;-52
2023/10/23 02:58:19;;;;;;;;;;;18.10;65.30;;;;;;7388059;19;4970;-53
2023/10/23 03:00:45;;;;;;;;;;;18.10;65.30;;;;;;7388478;19;4897;-53
2023/10/23 03:03:10;;;;;;;;;;;18.10;65.30;;;;;;7393461;19;4055;-52
2023/10/23 03:05:36;;;;;;;;;;;18.10;65.50;;;;;;7394350;19;4743;-52
2023/10/23 03:08:02;;;;;;;;;;;18.00;65.40;;;;;;7397040;19;3656;-52
2023/10/23 03:10:28;;;;;;;;;;;18.00;65.40;;;;;;7392218;19;3771;-53
2023/10/23 03:12:53;;;;;;;;;;;18.00;65.30;;;;;;7396195;19;4818;-53
2023/10/23 03:15:19;;;;;;;;;;;18.00;65.50;;;;;;7390581;19;4987;-49
2023/10/23 03:17:44;;;;;;;;;;;18.00;65.20;;;;;;7394616;19;4119;-53
2023/10/23 03:20:10;;;;;;;;;;;18.00;65.30;;;;;;7392655;19;5102;-53
2023/10/23 03:22:35;;;;;;;;;;;18.00;65.40;;;;;;7394616;19;4996;-52
2023/10/23 03:25:01;;;;;;;;;;;18.00;65.40;;;;;;7394714;19;4764;-52
2023/10/23 03:27:26;;;;;;;;;;;18.00;65.40;;;;;;7400970;19;1491;-51
2023/10/23 03:29:52;;;;;;;;;;;18.10;65.50;;;;;;7396270;19;5042;-53
2023/10/23 03:32:17;;;;;;;;;;;18.10;65.50;;;;;;7391689;19;4808;-53
2023/10/23 03:34:43;;;;;;;;;;;18.00;65.30;;;;;;7388997;19;5053;-53
2023/10/23 03:37:08;;;;;;;;;;;18.10;65.30;;;;;;7389347;19;3707;-53
2023/10/23 03:39:33;;;;;;;;;;;18.10;65.40;;;;;;7394276;19;3678;-52
2023/10/23 03:41:59;;;;;;;;;;;18.10;65.30;;;;;;7393038;19;4993;-53
2023/10/23 03:44:24;;;;;;;;;;;18.10;65.30;;;;;;7393035;19;3917;-53
2023/10/23 03:46:50;;;;;;;;;;;18.10;65.30;;;;;;7391961;19;4744;-53
2023/10/23 03:49:15;;;;;;;;;;;18.10;65.20;;;;;;7394129;19;3752;-52
2023/10/23 03:51:40;;;;;;;;;;;18.10;65.20;;;;;;7392746;19;4788;-51
2023/10/23 03:54:06;;;;;;;;;;;18.10;66.00;;;;;;7395217;19;4868;-53
2023/10/23 03:56:31;;;;;;;;;;;18.10;65.20;;;;;;7391379;19;4969;-53
2023/10/23 03:58:57;;;;;;;;;;;18.10;65.20;;;;;;7392150;19;5475;-53
2023/10/23 04:01:22;;;;;;;;;;;18.10;65.30;;;;;;7388906;19;5039;-53
2023/10/23 04:03:48;;;;;;;;;;;18.10;65.20;;;;;;7390350;19;4857;-53
2023/10/23 04:06:13;;;;;;;;;;;18.10;65.20;;;;;;7392727;19;4829;-53
2023/10/23 04:08:39;;;;;;;;;;;18.10;65.20;;;;;;7392655;19;4862;-52
2023/10/23 04:11:04;;;;;;;;;;;18.10;65.30;;;;;;7391822;19;4794;-52
2023/10/23 04:13:29;;;;;;;;;;;18.10;65.30;;;;;;7393455;19;4927;-53
2023/10/23 04:15:56;;;;;;;;;;;18.10;65.30;;;;;;7391515;19;5034;-53
2023/10/23 04:18:21;;;;;;;;;;;18.10;65.20;;;;;;7393088;19;4913;-53
2023/10/23 04:20:47;;;;;;;;;;;18.10;65.20;;;;;;7389385;19;4996;-52
2023/10/23 04:23:12;;;;;;;;;;;18.00;65.00;;;;;;7391362;19;4997;-52
2023/10/23 04:25:38;;;;;;;;;;;18.00;65.00;;;;;;7391467;19;4787;-51
2023/10/23 04:28:03;;;;;;;;;;;18.00;65.00;;;;;;7394640;19;5008;-53
2023/10/23 04:30:29;;;;;;;;;;;18.00;65.10;;;;;;7392550;19;4889;-53
2023/10/23 04:32:54;;;;;;;;;;;18.00;65.10;;;;;;7392403;19;5184;-53
2023/10/23 04:35:20;;;;;;;;;;;18.00;65.00;;;;;;7389650;19;5187;-53
2023/10/23 04:37:45;;;;;;;;;;;18.00;65.10;;;;;;7388684;19;4898;-52
2023/10/23 04:40:11;;;;;;;;;;;18.00;65.00;;;;;;7391750;19;4967;-53
2023/10/23 04:42:36;;;;;;;;;;;18.00;65.00;;;;;;7390148;19;4935;-53
2023/10/23 04:45:02;;;;;;;;;;;18.00;65.00;;;;;;7391511;19;3678;-53
2023/10/23 04:47:27;;;;;;;;;;;18.00;65.00;;;;;;7389451;19;4876;-53
2023/10/23 04:49:52;;;;;;;;;;;18.00;65.00;;;;;;7389724;19;4229;-53
2023/10/23 04:52:18;;;;;;;;;;;18.00;64.90;;;;;;7392942;19;4801;-53
2023/10/23 04:54:43;;;;;;;;;;;18.00;64.90;;;;;;7391825;19;4893;-53
2023/10/23 04:57:09;;;;;;;;;;;18.00;64.80;;;;;;7388084;19;4903;-53
2023/10/23 04:59:35;;;;;;;;;;;18.00;64.80;;;;;;7386913;19;4861;-52
2023/10/23 05:02:00;;;;;;;;;;;18.00;64.70;;;;;;7387699;19;3701;-52
2023/10/23 05:04:28;;;;;;;;;;;18.00;64.60;;;;;;7389834;19;5389;-53
2023/10/23 05:06:55;;;;;;;;;;;18.00;64.70;;;;;;7392794;19;1929;-51
2023/10/23 05:09:20;;;;;;;;;;;18.00;64.70;;;;;;7397628;19;1675;-50
2023/10/23 05:11:46;;;;;;;;;;;18.00;64.30;;;;;;7390241;19;4715;-53
2023/10/23 05:14:12;;;;;;;;;;;18.00;64.30;;;;;;7390418;19;4967;-52
2023/10/23 05:16:37;;;;;;;;;;;18.10;65.30;;;;;;7385601;19;3737;-53
2023/10/23 05:19:03;;;;;;;;;;;18.00;64.30;;;;;;7391240;19;4864;-52
2023/10/23 05:21:28;;;;;;;;;;;18.00;64.30;;;;;;7391233;19;4958;-53
2023/10/23 05:23:54;;;;;;;;;;;18.00;64.30;;;;;;7393269;19;4964;-53
2023/10/23 05:26:20;;;;;;;;;;;18.00;64.30;;;;;;7390934;19;5393;-53
2023/10/23 05:28:45;;;;;;;;;;;18.00;64.30;;;;;;7391111;19;5269;-52
2023/10/23 05:31:11;;;;;;;;;;;17.90;64.20;;;;;;7387604;19;4721;-53
2023/10/23 05:33:36;;;;;;;;;;;17.90;63.90;;;;;;7390245;19;4933;-52
2023/10/23 05:36:05;;;;;;;;;;;17.90;63.90;;;;;;7387417;19;4954;-52
2023/10/23 05:38:31;;;;;;;;;;;17.90;64.00;;;;;;7386881;19;4900;-53
2023/10/23 05:40:56;;;;;;;;;;;17.90;64.20;;;;;;7387928;19;4988;-53
2023/10/23 05:43:22;;;;;;;;;;;17.90;64.20;;;;;;7391222;19;4950;-52
2023/10/23 05:45:47;;;;;;;;;;;17.90;64.00;;;;;;7385667;19;3696;-52
2023/10/23 05:48:13;;;;;;;;;;;17.90;63.90;;;;;;7391899;19;4940;-53
2023/10/23 05:50:38;;;;;;;;;;;17.90;63.60;;;;;;7387871;19;5036;-53
2023/10/23 05:53:03;;;;;;;;;;;17.90;64.00;;;;;;7388506;19;4949;-53
2023/10/23 05:55:33;;;;;;;;;;;17.80;63.80;;;;;;7389032;19;4865;-50
2023/10/23 05:57:58;;;;;;;;;;;17.80;64.10;;;;;;7398691;19;1901;-51
2023/10/23 06:00:24;;;;;;;;;;;17.80;64.10;;;;;;7393844;19;5111;-53
2023/10/23 06:02:49;;;;;;;;;;;17.80;64.10;;;;;;7385312;19;5120;-52
2023/10/23 06:05:15;;;;;;;;;;;17.80;64.10;;;;;;7388554;19;5090;-52
2023/10/23 06:07:41;;;;;;;;;;;17.90;64.20;;;;;;7388144;19;5098;-52
2023/10/23 06:10:06;;;;;;;;;;;17.90;64.30;;;;;;7396942;19;4910;-52
2023/10/23 06:12:32;;;;;;;;;;;17.80;64.10;;;;;;7396960;19;5456;-53
2023/10/23 06:14:58;;;;;;;;;;;17.90;64.20;;;;;;7402034;19;5253;-50
2023/10/23 06:17:24;;;;;;;;;;;17.90;64.00;;;;;;7395244;19;4578;-52
2023/10/23 06:19:49;;;;;;;;;;;17.90;63.90;;;;;;7396169;19;4887;-53
2023/10/23 06:22:15;;;;;;;;;;;17.90;63.80;;;;;;7395537;19;5073;-52
2023/10/23 06:24:40;;;;;;;;;;;17.90;63.40;;;;;;7397724;19;5048;-53
2023/10/23 06:27:06;;;;;;;;;;;17.90;63.60;;;;;;7392237;19;4830;-53
2023/10/23 06:29:31;;;;;;;;;;;17.90;63.70;;;;;;7397642;19;4901;-48
2023/10/23 06:31:57;;;;;;;;;;;17.90;63.80;;;;;;7395516;19;4895;-52
2023/10/23 06:34:22;;;;;;;;;;;17.90;63.60;;;;;;7392376;19;5497;-53
2023/10/23 06:36:48;;;;;;;;;;;17.90;63.80;;;;;;7389922;19;5151;-52
2023/10/23 06:39:13;;;;;;;;;;;17.90;63.80;;;;;;7398351;19;5032;-53
2023/10/23 06:41:39;;;;;;;;;;;17.90;63.80;;;;;;7396823;19;4943;-52
2023/10/23 06:44:04;;;;;;;;;;;17.90;63.60;;;;;;7396321;19;3694;-53
2023/10/23 06:46:30;;;;;;;;;;;17.90;63.60;;;;;;7394110;19;4998;-52
2023/10/23 06:48:55;;;;;;;;;;;17.90;63.60;;;;;;7395792;19;4900;-52
2023/10/23 06:51:20;;;;;;;;;;;18.00;63.70;;;;;;7394029;19;4991;-52
2023/10/23 06:53:46;;;;;;;;;;;17.90;63.50;;;;;;7395280;19;3676;-53
2023/10/23 06:56:12;;;;;;;;;;;17.90;63.50;;;;;;7395589;19;4633;-53
2023/10/23 06:58:38;;;;;;;;;;;17.90;63.50;;;;;;7393620;19;5047;-53
2023/10/23 07:01:07;;;;;;;;;;;17.90;63.50;;;;;;7388902;19;4531;-51
2023/10/23 07:03:33;;;;;;;;;;;17.90;63.50;;;;;;7388001;19;3765;-52
2023/10/23 07:05:58;;;;;;;;;;;18.00;63.80;;;;;;7401841;19;4159;-54
2023/10/23 07:08:24;;;;;;;;;;;18.10;65.00;;;;;;7400721;19;2596;-55
2023/10/23 07:10:49;;;;;;;;;;;18.10;63.80;;;;;;7400083;19;2674;-55
2023/10/23 07:13:15;;;;;;;;;;;18.10;63.60;;;;;;7402237;19;1832;-56
2023/10/23 07:15:41;;;;;;;;;;;18.20;63.50;;;;;;7401124;19;5232;-48
2023/10/23 07:18:10;;;;;;;;;;;18.30;65.00;;;;;;7393836;19;5097;-55
2023/10/23 07:20:35;;;;;;;;;;;18.30;63.30;;;;;;7395852;19;1703;-55
2023/10/23 07:23:01;;;;;;;;;;;18.30;63.50;;;;;;7399300;19;2065;-55
2023/10/23 07:25:26;;;;;;;;;;;18.30;63.40;;;;;;7380642;19;4508;-48
2023/10/23 07:29:54;;;;;;;;;;;18.40;64.00;;;;;;7428742;19;4542;-63
2023/10/23 07:32:19;;;;;;;;;;;19.90;59.60;;;;;;7424386;19;4562;-63
2023/10/23 07:34:45;;;;;;;;;;;20.40;57.70;;;;;;7421817;19;3266;-63
2023/10/23 07:37:17;;;;;;;;;;;20.60;57.00;;;;;;7421314;19;4997;-63
2023/10/23 07:39:47;;;;;;;;;;;20.70;56.50;;;;;;7427187;19;5989;-63
2023/10/23 07:42:12;;;;;;;;;;;20.70;56.50;;;;;;7428997;19;3645;-63
2023/10/23 07:44:38;;;;;;;;;;;20.70;56.10;;;;;;7428115;19;3047;-64
2023/10/23 07:47:03;;;;;;;;;;;20.80;56.00;;;;;;7426096;19;3023;-63
2023/10/23 07:49:29;;;;;;;;;;;20.80;56.00;;;;;;7427864;19;1869;-61
2023/10/23 07:51:55;;;;;;;;;;;20.80;56.10;;;;;;7425648;19;3113;-61
2023/10/23 07:54:20;;;;;;;;;;;20.80;56.10;;;;;;7425393;19;3190;-62
2023/10/23 07:56:46;;;;;;;;;;;20.90;55.90;;;;;;7421290;19;3345;-63
2023/10/23 07:59:11;;;;;;;;;;;20.80;56.20;;;;;;7415527;19;3874;-63
2023/10/23 08:01:37;;;;;;;;;;;20.80;56.10;;;;;;7418992;19;4132;-64
2023/10/23 08:04:03;;;;;;;;;;;20.80;56.20;;;;;;7416971;19;4524;-64
2023/10/23 08:06:29;;;;;;;;;;;20.80;56.20;;;;;;7412305;19;5704;-64
2023/10/23 08:08:54;;;;;;;;;;;20.80;56.20;;;;;;7414446;19;3618;-63
2023/10/23 08:11:20;;;;;;;;;;;20.80;56.10;;;;;;7418338;19;5586;-63
2023/10/23 08:13:46;;;;;;;;;;;20.90;56.20;;;;;;7411913;19;4124;-62
2023/10/23 08:16:11;;;;;;;;;;;21.00;56.00;;;;;;7421247;19;3910;-64
2023/10/23 08:18:37;;;;;;;;;;;21.00;56.00;;;;;;7416604;19;6289;-64
2023/10/23 08:21:09;;;;;;;;;;;21.10;56.10;;;;;;7422008;19;4028;-64
2023/10/23 08:23:34;;;;;;;;;;;21.10;56.30;;;;;;7418897;19;4217;-63
2023/10/23 08:26:00;;;;;;;;;;;21.40;56.10;;;;;;7427257;19;3695;-63
2023/10/23 08:28:25;;;;;;;;;;;22.00;55.20;;;;;;7422912;19;3652;-63
2023/10/23 08:30:50;;;;;;;;;;;22.50;53.90;;;;;;7424125;19;3575;-62
2023/10/23 08:33:16;;;;;;;;;;;22.70;53.20;;;;;;7417660;19;3248;-63
2023/10/23 08:35:41;;;;;;;;;;;22.80;53.10;;;;;;7416671;19;4454;-63
2023/10/23 08:38:07;;;;;;;;;;;22.90;52.80;;;;;;7420962;19;4603;-64
2023/10/23 08:40:32;;;;;;;;;;;23.00;52.50;;;;;;7403653;19;4493;-62
2023/10/23 08:42:59;;;;;;;;;;;23.00;52.40;;;;;;7400123;19;2644;-63
2023/10/23 08:45:24;;;;;;;;;;;23.10;52.20;;;;;;7399611;19;2755;-64
2023/10/23 08:47:49;;;;;;;;;;;23.10;52.10;;;;;;7398246;19;1870;-64
2023/10/23 08:50:15;;;;;;;;;;;23.20;52.10;;;;;;7391711;19;3742;-64
2023/10/23 08:52:47;;;;;;;;;;;23.20;52.00;;;;;;7392702;19;6011;-64
2023/10/23 08:55:13;;;;;;;;;;;23.20;52.20;;;;;;7396998;19;1778;-63
2023/10/23 08:57:43;;;;;;;;;;;23.30;52.20;;;;;;7396059;19;4662;-63
2023/10/23 09:00:08;;;;;;;;;;;23.30;52.30;;;;;;7395494;19;2208;-63
2023/10/23 09:02:34;;;;;;;;;;;23.40;52.30;;;;;;7396226;19;3174;-63
2023/10/23 09:05:00;;;;;;;;;;;23.30;52.10;;;;;;7395137;19;3166;-65
2023/10/23 09:07:25;;;;;;;;;;;23.30;52.20;;;;;;7397331;19;3202;-64
2023/10/23 09:09:50;;;;;;;;;;;23.30;52.20;;;;;;7381435;19;3915;-65
2023/10/23 09:12:48;;;;;;;;;;;23.30;52.30;;;;;;7396667;19;2382;-62
2023/10/23 09:15:14;;;;;;;;;;;23.30;52.40;;;;;;7393568;19;1986;-61
2023/10/23 09:17:40;;;;;;;;;;;23.30;52.50;;;;;;7391572;19;4379;-60
2023/10/23 09:20:22;;;;;;;;;;;23.30;52.60;;;;;;7384563;19;4566;-65
2023/10/23 09:22:48;;;;;;;;;;;23.20;52.60;;;;;;7397937;19;4183;-64
2023/10/23 09:25:14;;;;;;;;;;;23.20;52.80;;;;;;7391494;19;3678;-65
2023/10/23 09:27:40;;;;;;;;;;;23.30;52.80;;;;;;7390760;19;3275;-64
2023/10/23 09:30:06;;;;;;;;;;;23.30;52.70;;;;;;7393936;19;1789;-65
2023/10/23 09:32:31;;;;;;;;;;;23.30;52.80;;;;;;7388209;19;3957;-65
2023/10/23 09:34:57;;;;;;;;;;;23.30;53.00;;;;;;7384695;19;3799;-64
2023/10/23 09:37:24;;;;;;;;;;;23.30;52.90;;;;;;7383077;19;3811;-62
2023/10/23 09:39:50;;;;;;;;;;;23.30;52.80;;;;;;7388218;19;4132;-62
2023/10/23 09:42:15;;;;;;;;;;;23.20;52.80;;;;;;7391050;19;2958;-64
2023/10/23 09:44:41;;;;;;;;;;;23.20;52.90;;;;;;7394445;19;2646;-64
2023/10/23 09:47:06;;;;;;;;;;;23.30;53.00;;;;;;7395362;19;1908;-62
2023/10/23 09:49:32;;;;;;;;;;;23.20;52.90;;;;;;7387735;19;3813;-62
2023/10/23 09:51:57;;;;;;;;;;;23.30;53.10;;;;;;7386740;19;3431;-63
2023/10/23 09:54:23;;;;;;;;;;;23.30;53.00;;;;;;7397171;19;4828;-64
2023/10/23 09:56:52;;;;;;;;;;;23.30;53.00;;;;;;7394908;19;3952;-62
2023/10/23 09:59:18;;;;;;;;;;;23.40;53.00;;;;;;7395235;19;3422;-61
2023/10/23 10:01:43;;;;;;;;;;;23.40;52.90;;;;;;7394111;19;3412;-62
2023/10/23 10:04:13;;;;;;;;;;;23.40;52.90;;;;;;7392053;19;4576;-61
2023/10/23 10:06:39;;;;;;;;;;;23.50;52.80;;;;;;7392983;19;3271;-62
2023/10/23 10:09:08;;;;;;;;;;;23.50;52.80;;;;;;7390963;19;4374;-63
2023/10/23 10:11:33;;;;;;;;;;;23.50;52.90;;;;;;7395030;19;3573;-62
2023/10/23 10:13:59;;;;;;;;;;;23.50;53.00;;;;;;7393008;19;1847;-63
2023/10/23 10:16:24;;;;;;;;;;;23.40;53.00;;;;;;7394601;19;2539;-63
2023/10/23 10:18:50;;;;;;;;;;;23.40;52.90;;;;;;7392577;19;4613;-64
2023/10/23 10:21:17;;;;;;;;;;;23.20;53.10;;;;;;7382980;19;4564;-66
2023/10/23 10:23:42;;;;;;;;;;;23.00;53.50;;;;;;7393529;19;3409;-63
2023/10/23 10:26:08;;;;;;;;;;;22.90;53.60;;;;;;7383369;19;3512;-65
2023/10/23 10:28:34;;;;;;;;;;;22.80;53.70;;;;;;7386662;19;3768;-63
2023/10/23 10:30:59;;;;;;;;;;;22.70;54.00;;;;;;7392606;19;3001;-63
2023/10/23 10:33:29;;;;;;;;;;;22.70;53.90;;;;;;7394819;19;3405;-64
2023/10/23 10:35:58;;;;;;;;;;;22.70;53.80;;;;;;7384774;19;4164;-63
2023/10/23 10:38:23;;;;;;;;;;;22.80;53.80;;;;;;7394598;19;2610;-63
2023/10/23 10:41:01;;;;;;;;;;;22.80;53.50;;;;;;7389637;19;4538;-62
2023/10/23 10:43:32;;;;;;;;;;;23.00;53.40;;;;;;7396899;19;3064;-63
2023/10/23 10:45:57;;;;;;;;;;;23.00;53.20;;;;;;7388225;19;4264;-63
2023/10/23 10:48:24;;;;;;;;;;;23.00;53.20;;;;;;7392029;19;4154;-62
2023/10/23 10:50:50;;;;;;;;;;;23.10;52.90;;;;;;7383816;19;3705;-63
2023/10/23 10:53:15;;;;;;;;;;;23.10;52.80;;;;;;7387261;19;3544;-64
2023/10/23 10:55:42;;;;;;;;;;;23.10;52.90;;;;;;7386798;19;3710;-64
2023/10/23 10:58:07;;;;;;;;;;;23.10;52.80;;;;;;7387415;19;3769;-63
2023/10/23 11:00:35;;;;;;;;;;;23.10;53.50;;;;;;7389288;19;3894;-62
2023/10/23 11:03:00;;;;;;;;;;;23.20;52.80;;;;;;7388452;19;3748;-63
2023/10/23 11:05:26;;;;;;;;;;;23.30;52.60;;;;;;7386462;19;3644;-62
2023/10/23 11:07:51;;;;;;;;;;;23.40;52.70;;;;;;7389086;19;3261;-61
2023/10/23 11:10:17;;;;;;;;;;;23.40;52.70;;;;;;7391576;19;4444;-61
2023/10/23 11:12:43;;;;;;;;;;;23.40;52.60;;;;;;7394676;19;2605;-62
2023/10/23 11:15:09;;;;;;;;;;;23.40;52.60;;;;;;7391249;19;2585;-64
2023/10/23 11:17:35;;;;;;;;;;;23.40;52.80;;;;;;7386041;19;3963;-63
2023/10/23 11:20:05;;;;;;;;;;;23.40;52.90;;;;;;7382138;19;3557;-64
2023/10/23 11:22:31;;;;;;;;;;;23.40;53.60;;;;;;7388944;19;4604;-63
2023/10/23 11:24:56;;;;;;;;;;;23.40;53.10;;;;;;7393444;19;2619;-65
2023/10/23 11:27:22;;;;;;;;;;;23.30;53.10;;;;;;7393513;19;1819;-64
2023/10/23 11:29:47;;;;;;;;;;;23.30;53.20;;;;;;7388745;19;3180;-64
2023/10/23 11:32:13;;;;;;;;;;;23.30;53.40;;;;;;7392319;19;2974;-65
2023/10/23 11:34:38;;;;;;;;;;;23.30;53.40;;;;;;7391604;19;3684;-64
2023/10/23 11:37:04;;;;;;;;;;;23.30;53.50;;;;;;7388729;19;3140;-63
2023/10/23 11:39:29;;;;;;;;;;;23.30;53.50;;;;;;7392883;19;4205;-64
2023/10/23 11:41:56;;;;;;;;;;;23.40;53.40;;;;;;7391781;19;2342;-64
2023/10/23 11:44:22;;;;;;;;;;;23.40;53.30;;;;;;7387843;19;3539;-63
2023/10/23 11:46:48;;;;;;;;;;;23.50;53.30;;;;;;7386376;19;3141;-62
2023/10/23 11:49:14;;;;;;;;;;;23.50;53.20;;;;;;7390788;19;3813;-64
2023/10/23 11:51:39;;;;;;;;;;;23.50;53.10;;;;;;7388504;19;3242;-63
2023/10/23 11:54:05;;;;;;;;;;;23.50;53.00;;;;;;7392845;19;3757;-64
2023/10/23 11:56:32;;;;;;;;;;;23.50;52.90;;;;;;7390120;19;4517;-63
2023/10/23 11:58:57;;;;;;;;;;;23.50;53.00;;;;;;7391217;19;3224;-64
2023/10/23 12:01:23;;;;;;;;;;;23.40;52.90;;;;;;7389301;19;3637;-65
2023/10/23 12:03:48;;;;;;;;;;;23.40;53.00;;;;;;7387656;19;3461;-64
2023/10/23 12:06:14;;;;;;;;;;;23.40;53.70;;;;;;7385951;19;3956;-65
2023/10/23 12:08:39;;;;;;;;;;;23.40;53.20;;;;;;7384657;19;3590;-61
2023/10/23 12:11:04;;;;;;;;;;;23.50;53.10;;;;;;7389626;19;3903;-64
2023/10/23 12:13:30;;;;;;;;;;;23.50;53.10;;;;;;7391543;19;4501;-63
2023/10/23 12:15:55;;;;;;;;;;;23.50;53.10;;;;;;7394450;19;3347;-64
2023/10/23 12:18:23;;;;;;;;;;;23.50;53.10;;;;;;7394055;19;4521;-64
2023/10/23 12:20:48;;;;;;;;;;;23.60;53.00;;;;;;7394999;19;2252;-64
2023/10/23 12:23:14;;;;;;;;;;;23.60;52.90;;;;;;7397668;19;4661;-64
2023/10/23 12:25:39;;;;;;;;;;;23.70;52.90;;;;;;7399211;19;2303;-65
2023/10/23 12:28:05;;;;;;;;;;;23.70;52.80;;;;;;7397964;19;2272;-66
2023/10/23 12:30:30;;;;;;;;;;;23.70;52.80;;;;;;7401668;19;2130;-66
2023/10/23 12:32:56;;;;;;;;;;;23.70;52.60;;;;;;7394906;19;3366;-67
2023/10/23 12:35:21;;;;;;;;;;;23.70;52.40;;;;;;7384819;19;4342;-64
2023/10/23 12:37:47;;;;;;;;;;;23.70;52.30;;;;;;7392747;19;3675;-65
2023/10/23 12:40:13;;;;;;;;;;;23.70;52.50;;;;;;7392114;19;3805;-67
2023/10/23 12:42:39;;;;;;;;;;;23.60;52.50;;;;;;7393942;19;3567;-66
2023/10/23 12:45:05;;;;;;;;;;;23.60;52.70;;;;;;7395630;19;3599;-65
2023/10/23 12:47:32;;;;;;;;;;;23.50;52.70;;;;;;7395598;19;3581;-63
2023/10/23 12:49:58;;;;;;;;;;;23.40;53.00;;;;;;7394257;19;1853;-63
2023/10/23 12:52:23;;;;;;;;;;;23.30;53.20;;;;;;7397315;19;3327;-64
2023/10/23 12:54:49;;;;;;;;;;;23.20;53.40;;;;;;7387889;19;3502;-63
2023/10/23 12:57:14;;;;;;;;;;;23.20;53.50;;;;;;7388748;19;3543;-62
2023/10/23 12:59:40;;;;;;;;;;;23.20;53.70;;;;;;7395806;19;3545;-64
2023/10/23 13:02:05;;;;;;;;;;;23.20;53.60;;;;;;7391575;19;3530;-65
2023/10/23 13:04:31;;;;;;;;;;;23.30;53.70;;;;;;7393458;19;2847;-65
2023/10/23 13:06:56;;;;;;;;;;;23.30;53.50;;;;;;7394205;19;4215;-65
2023/10/23 13:09:22;;;;;;;;;;;23.40;53.60;;;;;;7393172;19;5275;-64
2023/10/23 13:11:48;;;;;;;;;;;23.40;53.60;;;;;;7392978;19;3603;-63
2023/10/23 13:14:13;;;;;;;;;;;23.40;53.70;;;;;;7394927;19;3788;-63
2023/10/23 13:16:38;;;;;;;;;;;23.40;53.70;;;;;;7394842;19;4227;-64
2023/10/23 13:19:05;;;;;;;;;;;23.50;53.60;;;;;;7393486;19;4376;-64
2023/10/23 13:21:31;;;;;;;;;;;23.50;53.50;;;;;;7390898;19;3991;-64
2023/10/23 13:23:56;;;;;;;;;;;23.60;53.40;;;;;;7395234;19;3916;-64
2023/10/23 13:26:23;;;;;;;;;;;23.60;53.30;;;;;;7392941;19;3318;-63
2023/10/23 13:28:48;;;;;;;;;;;23.60;53.20;;;;;;7391011;19;4857;-63
2023/10/23 13:31:13;;;;;;;;;;;23.70;53.10;;;;;;7396556;19;3282;-64
2023/10/23 13:33:39;;;;;;;;;;;23.70;52.90;;;;;;7397394;19;1085;-65
2023/10/23 13:36:05;;;;;;;;;;;23.70;52.90;;;;;;7394351;19;1748;-64
2023/10/23 13:38:32;;;;;;;;;;;23.70;52.80;;;;;;7392182;19;4275;-64
2023/10/23 13:40:57;;;;;;;;;;;23.70;52.90;;;;;;7397233;19;2156;-65
2023/10/23 13:43:24;;;;;;;;;;;23.70;53.00;;;;;;7396731;19;3343;-65
2023/10/23 13:45:50;;;;;;;;;;;23.80;53.10;;;;;;7393971;19;1767;-65
2023/10/23 13:48:15;;;;;;;;;;;23.70;53.10;;;;;;7395350;19;1858;-65
2023/10/23 13:50:41;;;;;;;;;;;23.70;53.20;;;;;;7394602;19;2428;-64
2023/10/23 13:53:06;;;;;;;;;;;23.60;53.20;;;;;;7393159;19;4409;-65
2023/10/23 13:55:32;;;;;;;;;;;23.50;53.30;;;;;;7393553;19;3354;-64
2023/10/23 13:57:57;;;;;;;;;;;23.50;53.60;;;;;;7396793;19;1836;-64
2023/10/23 14:00:23;;;;;;;;;;;23.50;53.70;;;;;;7394192;19;3618;-64
2023/10/23 14:02:48;;;;;;;;;;;23.50;53.60;;;;;;7395147;19;1948;-64
2023/10/23 14:05:15;;;;;;;;;;;23.50;53.60;;;;;;7389175;19;4189;-65
2023/10/23 14:07:40;;;;;;;;;;;23.50;53.60;;;;;;7397907;19;1852;-65
2023/10/23 14:10:06;;;;;;;;;;;23.50;53.60;;;;;;7391504;19;3473;-64
2023/10/23 14:12:32;;;;;;;;;;;23.50;53.70;;;;;;7397670;19;1825;-65
2023/10/23 14:14:57;;;;;;;;;;;23.50;53.50;;;;;;7394505;19;3487;-65
2023/10/23 14:17:23;;;;;;;;;;;23.60;53.50;;;;;;7398766;19;1708;-65
2023/10/23 14:19:48;;;;;;;;;;;23.50;53.30;;;;;;7394914;19;3779;-65
2023/10/23 14:22:14;;;;;;;;;;;23.60;53.40;;;;;;7393700;19;3179;-64
2023/10/23 14:24:40;;;;;;;;;;;23.60;53.30;;;;;;7393621;19;2969;-65